createdAt,value
2019-05-29T00:00:34.403Z,0.00
2019-05-29T00:01:34.343Z,0.00
2019-05-29T00:02:34.357Z,0.00
2019-05-29T00:03:34.332Z,0.00
2019-05-29T00:04:34.334Z,0.00
2019-05-29T00:05:34.295Z,0.00
2019-05-29T00:06:34.291Z,0.00
2019-05-29T00:07:34.294Z,0.00
2019-05-29T00:08:34.273Z,0.00
2019-05-29T00:09:34.259Z,0.00
2019-05-29T00:10:34.240Z,0.00
2019-05-29T00:11:34.239Z,0.00
2019-05-29T00:12:34.237Z,0.00
2019-05-29T00:13:34.218Z,0.00
2019-05-29T00:14:34.209Z,0.00
2019-05-29T00:15:34.187Z,0.00
2019-05-29T00:16:34.429Z,0.00
2019-05-29T00:17:35.097Z,0.00
2019-05-29T00:18:34.175Z,0.00
2019-05-29T00:19:34.165Z,0.00
2019-05-29T00:20:34.134Z,0.00
2019-05-29T00:21:34.134Z,0.00
2019-05-29T00:22:34.115Z,0.00
2019-05-29T00:23:34.107Z,0.00
2019-05-29T00:24:34.105Z,0.00
2019-05-29T00:25:34.084Z,0.00
2019-05-29T00:26:34.073Z,0.00
2019-05-29T00:27:34.072Z,0.00
2019-05-29T00:28:34.051Z,0.00
2019-05-29T00:29:34.051Z,0.00
2019-05-29T00:30:34.161Z,0.00
2019-05-29T00:31:34.023Z,0.00
2019-05-29T00:32:34.012Z,0.00
2019-05-29T00:33:33.998Z,0.00
2019-05-29T00:34:34.003Z,0.00
2019-05-29T00:35:33.979Z,0.00
2019-05-29T00:36:33.978Z,0.00
2019-05-29T00:37:33.969Z,0.00
2019-05-29T00:38:33.954Z,0.00
2019-05-29T00:39:33.949Z,0.00
2019-05-29T00:40:33.924Z,0.00
2019-05-29T00:41:33.909Z,0.00
2019-05-29T00:42:33.896Z,0.00
2019-05-29T00:43:33.885Z,0.00
2019-05-29T00:44:34.761Z,0.00
2019-05-29T00:45:33.865Z,0.00
2019-05-29T00:46:33.865Z,0.00
2019-05-29T00:47:33.844Z,0.00
2019-05-29T00:48:33.854Z,0.00
2019-05-29T00:49:33.847Z,0.00
2019-05-29T00:50:34.963Z,0.00
2019-05-29T00:51:33.802Z,0.00
2019-05-29T00:52:33.793Z,0.00
2019-05-29T00:53:33.791Z,0.00
2019-05-29T00:54:33.770Z,0.00
2019-05-29T00:55:33.769Z,0.00
2019-05-29T00:56:33.754Z,0.00
2019-05-29T00:57:33.742Z,0.00
2019-05-29T00:58:33.740Z,0.00
2019-05-29T00:59:33.726Z,0.00
2019-05-29T01:00:33.709Z,0.00
2019-05-29T01:01:33.708Z,0.00
2019-05-29T01:02:33.692Z,0.00
2019-05-29T01:03:33.688Z,0.00
2019-05-29T01:04:33.670Z,0.00
2019-05-29T01:05:33.657Z,0.00
2019-05-29T01:06:33.637Z,0.00
2019-05-29T01:07:33.635Z,0.00
2019-05-29T01:08:33.634Z,0.00
2019-05-29T01:09:33.614Z,0.00
2019-05-29T01:10:33.605Z,0.00
2019-05-29T01:11:33.813Z,0.00
2019-05-29T01:12:33.594Z,0.00
2019-05-29T01:13:33.571Z,0.00
2019-05-29T01:14:48.870Z,0.00
2019-05-29T01:15:34.543Z,0.00
2019-05-29T01:16:33.541Z,0.00
2019-05-29T01:17:33.541Z,0.00
2019-05-29T01:18:33.521Z,0.00
2019-05-29T01:19:33.501Z,0.00
2019-05-29T01:20:33.500Z,0.00
2019-05-29T01:21:33.480Z,0.00
2019-05-29T01:22:33.469Z,0.00
2019-05-29T01:23:33.459Z,0.00
2019-05-29T01:24:33.468Z,0.00
2019-05-29T01:25:33.464Z,0.00
2019-05-29T01:26:33.438Z,0.00
2019-05-29T01:27:33.421Z,0.00
2019-05-29T01:28:33.396Z,0.00
2019-05-29T01:29:33.396Z,0.00
2019-05-29T01:30:33.377Z,0.00
2019-05-29T01:31:33.386Z,0.00
2019-05-29T01:32:33.358Z,0.00
2019-05-29T01:33:33.345Z,0.00
2019-05-29T01:34:33.346Z,0.00
2019-05-29T01:35:33.323Z,0.00
2019-05-29T01:36:33.333Z,0.00
2019-05-29T01:37:33.304Z,0.00
2019-05-29T01:38:33.297Z,0.00
2019-05-29T01:39:33.285Z,0.00
2019-05-29T01:40:33.282Z,0.00
2019-05-29T01:41:33.272Z,0.00
2019-05-29T01:42:33.251Z,0.00
2019-05-29T01:43:33.260Z,0.00
2019-05-29T01:44:33.232Z,0.00
2019-05-29T01:45:33.225Z,0.00
2019-05-29T01:46:33.218Z,0.00
2019-05-29T01:47:33.219Z,0.00
2019-05-29T01:48:33.195Z,0.00
2019-05-29T01:49:33.188Z,0.00
2019-05-29T01:50:33.168Z,0.00
2019-05-29T01:51:33.169Z,0.00
2019-05-29T01:52:33.156Z,0.00
2019-05-29T01:53:33.147Z,0.00
2019-05-29T01:54:33.126Z,0.00
2019-05-29T01:55:33.115Z,0.00
2019-05-29T01:56:33.108Z,0.00
2019-05-29T01:57:33.093Z,0.00
2019-05-29T01:58:33.085Z,0.00
2019-05-29T01:59:33.073Z,0.00
2019-05-29T02:00:33.088Z,0.00
2019-05-29T02:01:33.046Z,0.00
2019-05-29T02:02:33.034Z,0.00
2019-05-29T02:03:33.045Z,0.00
2019-05-29T02:04:33.020Z,0.00
2019-05-29T02:05:33.016Z,0.00
2019-05-29T02:06:33.002Z,0.00
2019-05-29T02:07:32.989Z,0.00
2019-05-29T02:08:32.991Z,0.00
2019-05-29T02:09:32.985Z,0.00
2019-05-29T02:10:33.006Z,0.00
2019-05-29T02:11:33.500Z,0.00
2019-05-29T02:12:32.939Z,0.00
2019-05-29T02:13:32.933Z,0.00
2019-05-29T02:14:32.925Z,0.00
2019-05-29T02:15:34.169Z,0.00
2019-05-29T02:16:32.920Z,0.00
2019-05-29T02:17:33.052Z,0.00
2019-05-29T02:18:32.895Z,0.00
2019-05-29T02:19:32.865Z,0.00
2019-05-29T02:20:32.851Z,0.00
2019-05-29T02:21:32.844Z,0.00
2019-05-29T02:22:32.834Z,0.00
2019-05-29T02:23:32.823Z,0.00
2019-05-29T02:24:32.812Z,0.00
2019-05-29T02:25:32.807Z,0.00
2019-05-29T02:26:32.792Z,0.00
2019-05-29T02:27:32.775Z,0.00
2019-05-29T02:28:32.751Z,0.00
2019-05-29T02:29:32.751Z,0.00
2019-05-29T02:30:32.749Z,0.00
2019-05-29T02:31:32.756Z,0.00
2019-05-29T02:32:32.710Z,0.00
2019-05-29T02:33:32.712Z,0.00
2019-05-29T02:34:32.720Z,0.00
2019-05-29T02:35:32.688Z,0.00
2019-05-29T02:36:32.689Z,0.00
2019-05-29T02:37:32.673Z,0.00
2019-05-29T02:38:32.667Z,0.00
2019-05-29T02:39:32.662Z,0.00
2019-05-29T02:40:32.640Z,0.00
2019-05-29T02:41:32.615Z,0.00
2019-05-29T02:42:32.615Z,0.00
2019-05-29T02:43:32.615Z,0.00
2019-05-29T02:44:32.604Z,0.00
2019-05-29T02:45:52.634Z,4.00
2019-05-29T02:46:33.561Z,4.00
2019-05-29T02:47:32.572Z,0.00
2019-05-29T02:48:32.544Z,0.00
2019-05-29T02:49:32.551Z,4.00
2019-05-29T02:50:32.532Z,4.00
2019-05-29T02:51:32.523Z,0.00
2019-05-29T02:52:32.510Z,4.00
2019-05-29T02:53:32.489Z,4.00
2019-05-29T02:54:32.564Z,4.00
2019-05-29T02:55:32.490Z,8.00
2019-05-29T02:56:32.479Z,4.00
2019-05-29T02:57:32.450Z,4.00
2019-05-29T02:58:32.447Z,8.00
2019-05-29T02:59:32.568Z,8.00
2019-05-29T03:00:32.424Z,8.00
2019-05-29T03:01:32.417Z,12.00
2019-05-29T03:02:32.426Z,12.00
2019-05-29T03:03:39.123Z,16.00
2019-05-29T03:04:33.460Z,16.00
2019-05-29T03:05:32.397Z,20.00
2019-05-29T03:06:32.548Z,20.00
2019-05-29T03:07:32.826Z,20.00
2019-05-29T03:08:34.175Z,24.00
2019-05-29T03:09:32.787Z,28.00
2019-05-29T03:10:33.158Z,28.00
2019-05-29T03:11:33.454Z,32.00
2019-05-29T03:12:33.722Z,36.00
2019-05-29T03:13:33.457Z,40.00
2019-05-29T03:14:34.357Z,48.00
2019-05-29T03:15:33.767Z,52.00
2019-05-29T03:16:34.605Z,52.00
2019-05-29T03:17:33.671Z,60.00
2019-05-29T03:18:32.978Z,68.00
2019-05-29T03:19:32.569Z,72.00
2019-05-29T03:20:32.480Z,80.00
2019-05-29T03:21:32.550Z,84.00
2019-05-29T03:23:41.139Z,104.00
2019-05-29T03:24:41.099Z,112.00
2019-05-29T03:25:41.075Z,120.00
2019-05-29T03:26:41.074Z,132.00
2019-05-29T03:27:41.063Z,140.00
2019-05-29T03:28:41.043Z,152.00
2019-05-29T03:29:41.046Z,164.00
2019-05-29T03:30:45.939Z,176.00
2019-05-29T03:31:47.214Z,192.00
2019-05-29T03:32:47.738Z,204.00
2019-05-29T03:33:49.285Z,212.00
2019-05-29T03:34:46.755Z,228.00
2019-05-29T03:35:47.563Z,240.00
2019-05-29T03:36:47.645Z,252.00
2019-05-29T03:37:41.948Z,268.00
2019-05-29T03:38:40.954Z,284.00
2019-05-29T03:39:40.928Z,300.00
2019-05-29T03:40:40.928Z,316.00
2019-05-29T03:41:40.914Z,332.00
2019-05-29T03:42:40.913Z,356.00
2019-05-29T03:43:40.889Z,376.00
2019-05-29T03:44:40.879Z,392.00
2019-05-29T03:45:40.875Z,416.00
2019-05-29T03:46:45.645Z,436.00
2019-05-29T03:47:41.835Z,456.00
2019-05-29T03:48:40.836Z,476.00
2019-05-29T03:49:40.824Z,496.00
2019-05-29T03:50:40.870Z,516.00
2019-05-29T03:51:40.804Z,536.00
2019-05-29T03:52:40.797Z,564.00
2019-05-29T03:53:40.781Z,584.00
2019-05-29T03:54:40.777Z,612.00
2019-05-29T03:55:40.773Z,636.00
2019-05-29T03:56:40.760Z,668.00
2019-05-29T03:57:40.746Z,692.00
2019-05-29T03:58:40.736Z,724.00
2019-05-29T03:59:40.720Z,756.00
2019-05-29T04:00:46.210Z,784.00
2019-05-29T04:01:41.697Z,812.00
2019-05-29T04:02:40.688Z,848.00
2019-05-29T04:03:40.667Z,884.00
2019-05-29T04:04:40.662Z,928.00
2019-05-29T04:05:40.653Z,960.00
2019-05-29T04:06:40.652Z,1000.00
2019-05-29T04:07:40.646Z,1044.00
2019-05-29T04:08:40.630Z,1076.00
2019-05-29T04:09:41.163Z,1096.00
2019-05-29T04:10:40.596Z,1120.00
2019-05-29T04:11:40.594Z,1132.00
2019-05-29T04:12:40.605Z,1156.00
2019-05-29T04:13:40.587Z,1212.00
2019-05-29T04:14:40.595Z,1288.00
2019-05-29T04:15:40.622Z,1364.00
2019-05-29T04:16:58.218Z,1432.00
2019-05-29T04:17:41.538Z,1488.00
2019-05-29T04:18:40.509Z,1544.00
2019-05-29T04:19:40.492Z,1616.00
2019-05-29T04:20:40.495Z,1668.00
2019-05-29T04:21:40.479Z,1740.00
2019-05-29T04:22:40.500Z,1800.00
2019-05-29T04:23:40.461Z,1812.00
2019-05-29T04:24:40.461Z,1840.00
2019-05-29T04:25:42.819Z,1876.00
2019-05-29T04:26:40.427Z,1892.00
2019-05-29T04:27:40.427Z,1952.00
2019-05-29T04:28:40.433Z,2080.00
2019-05-29T04:29:40.399Z,2288.00
2019-05-29T04:30:40.385Z,3064.00
2019-05-29T04:31:40.374Z,4040.00
2019-05-29T04:32:40.366Z,4372.00
2019-05-29T04:33:40.360Z,4184.00
2019-05-29T04:34:40.352Z,4760.00
2019-05-29T04:35:40.334Z,5156.00
2019-05-29T04:36:40.323Z,4448.00
2019-05-29T04:37:40.377Z,3496.00
2019-05-29T04:38:40.558Z,3364.00
2019-05-29T04:39:40.282Z,3536.00
2019-05-29T04:40:40.274Z,3716.00
2019-05-29T04:41:40.279Z,4068.00
2019-05-29T04:42:40.358Z,4488.00
2019-05-29T04:43:40.254Z,5204.00
2019-05-29T04:44:41.166Z,5580.00
2019-05-29T04:45:40.336Z,5044.00
2019-05-29T04:46:40.692Z,5084.00
2019-05-29T04:47:40.210Z,6404.00
2019-05-29T04:48:40.583Z,9076.00
2019-05-29T04:49:40.201Z,10000.00
2019-05-29T04:50:40.839Z,7480.00
2019-05-29T04:51:40.159Z,4444.00
2019-05-29T04:52:40.631Z,3800.00
2019-05-29T04:53:40.207Z,4072.00
2019-05-29T04:54:40.369Z,4764.00
2019-05-29T04:55:40.117Z,4608.00
2019-05-29T04:56:40.115Z,3524.00
2019-05-29T04:57:40.105Z,3320.00
2019-05-29T04:58:40.084Z,3308.00
2019-05-29T04:59:40.086Z,3356.00
2019-05-29T05:00:40.065Z,3412.00
2019-05-29T05:01:40.055Z,3452.00
2019-05-29T05:02:40.043Z,3512.00
2019-05-29T05:03:40.033Z,3564.00
2019-05-29T05:04:40.032Z,3608.00
2019-05-29T05:05:40.008Z,3628.00
2019-05-29T05:06:40.003Z,3668.00
2019-05-29T05:07:39.981Z,3724.00
2019-05-29T05:08:40.241Z,3768.00
2019-05-29T05:09:39.970Z,3852.00
2019-05-29T05:10:40.945Z,3936.00
2019-05-29T05:11:39.951Z,3996.00
2019-05-29T05:12:40.194Z,4020.00
2019-05-29T05:13:39.921Z,4108.00
2019-05-29T05:14:39.932Z,4820.00
2019-05-29T05:15:40.222Z,6700.00
2019-05-29T05:16:40.031Z,8348.00
2019-05-29T05:17:40.222Z,8280.00
2019-05-29T05:18:40.342Z,8228.00
2019-05-29T05:19:40.159Z,8364.00
2019-05-29T05:20:40.358Z,8468.00
2019-05-29T05:21:40.257Z,8552.00
2019-05-29T05:22:40.989Z,9776.00
2019-05-29T05:23:40.493Z,16800.00
2019-05-29T05:24:43.423Z,28256.00
2019-05-29T05:25:41.013Z,22048.00
2019-05-29T05:26:40.463Z,20320.00
2019-05-29T05:27:40.690Z,38688.00
2019-05-29T05:28:43.467Z,42496.00
2019-05-29T05:29:40.763Z,24544.00
2019-05-29T05:30:40.779Z,22176.00
2019-05-29T05:31:40.801Z,25728.00
2019-05-29T05:32:40.952Z,20544.00
2019-05-29T05:33:40.901Z,12420.00
2019-05-29T05:34:40.909Z,11144.00
2019-05-29T05:35:40.729Z,10840.00
2019-05-29T05:36:40.876Z,11520.00
2019-05-29T05:37:40.941Z,9800.00
2019-05-29T05:38:40.871Z,11820.00
2019-05-29T05:39:41.084Z,17632.00
2019-05-29T05:40:41.863Z,16128.00
2019-05-29T05:41:39.626Z,15136.00
2019-05-29T05:42:39.608Z,20128.00
2019-05-29T05:43:39.611Z,33952.00
2019-05-29T05:44:39.588Z,29056.00
2019-05-29T05:45:39.577Z,13004.00
2019-05-29T05:46:39.575Z,18592.00
2019-05-29T05:47:54.573Z,37792.00
2019-05-29T05:48:41.487Z,53216.00
2019-05-29T05:49:39.611Z,56544.00
2019-05-29T05:50:39.525Z,58112.00
2019-05-29T05:51:42.705Z,58912.00
2019-05-29T05:52:41.546Z,58272.00
2019-05-29T05:53:39.562Z,57344.00
2019-05-29T05:54:39.605Z,49792.00
2019-05-29T05:55:39.762Z,33536.00
2019-05-29T05:56:39.731Z,27040.00
2019-05-29T05:57:39.728Z,25760.00
2019-05-29T05:58:39.926Z,22752.00
2019-05-29T05:59:39.873Z,17024.00
2019-05-29T06:00:39.869Z,21376.00
2019-05-29T06:01:40.034Z,29376.00
2019-05-29T06:02:40.119Z,29152.00
2019-05-29T06:03:40.561Z,26784.00
2019-05-29T06:04:40.013Z,31424.00
2019-05-29T06:05:40.202Z,31264.00
2019-05-29T06:06:40.248Z,29376.00
2019-05-29T06:07:40.383Z,32544.00
2019-05-29T06:08:40.211Z,32640.00
2019-05-29T06:09:40.404Z,20512.00
2019-05-29T06:10:40.236Z,16352.00
2019-05-29T06:11:40.322Z,13708.00
2019-05-29T06:12:40.505Z,12472.00
2019-05-29T06:13:40.410Z,7592.00
2019-05-29T06:14:40.558Z,6972.00
2019-05-29T06:15:40.522Z,6964.00
2019-05-29T06:16:39.249Z,7672.00
2019-05-29T06:17:39.248Z,11596.00
2019-05-29T06:18:39.239Z,14080.00
2019-05-29T06:19:39.216Z,10876.00
2019-05-29T06:20:39.227Z,15904.00
2019-05-29T06:21:39.199Z,19136.00
2019-05-29T06:22:39.279Z,24032.00
2019-05-29T06:23:39.176Z,20320.00
2019-05-29T06:24:39.177Z,27456.00
2019-05-29T06:25:40.696Z,38400.00
2019-05-29T06:26:39.146Z,34176.00
2019-05-29T06:27:39.309Z,23328.00
2019-05-29T06:28:39.206Z,21504.00
2019-05-29T06:29:39.431Z,21984.00
2019-05-29T06:30:40.874Z,18400.00
2019-05-29T06:31:39.382Z,13260.00
2019-05-29T06:32:39.499Z,13500.00
2019-05-29T06:33:39.487Z,13616.00
2019-05-29T06:34:39.606Z,13116.00
2019-05-29T06:35:39.641Z,19808.00
2019-05-29T06:36:39.641Z,18816.00
2019-05-29T06:37:39.590Z,35392.00
2019-05-29T06:38:40.435Z,45824.00
2019-05-29T06:39:39.650Z,37664.00
2019-05-29T06:40:40.140Z,31648.00
2019-05-29T06:41:40.098Z,47360.00
2019-05-29T06:42:39.871Z,65440.00
2019-05-29T06:43:39.897Z,69184.00
2019-05-29T06:44:41.005Z,71264.00
2019-05-29T06:45:39.981Z,76544.00
2019-05-29T06:46:40.291Z,79040.00
2019-05-29T06:47:40.656Z,80352.00
2019-05-29T06:48:45.458Z,81280.00
2019-05-29T06:49:40.103Z,71840.00
2019-05-29T06:50:39.440Z,72032.00
2019-05-29T06:51:39.330Z,71712.00
2019-05-29T06:52:39.487Z,75616.00
2019-05-29T06:53:39.822Z,80192.00
2019-05-29T06:54:39.990Z,84128.00
2019-05-29T06:55:39.866Z,79520.00
2019-05-29T06:56:39.751Z,82144.00
2019-05-29T06:57:40.131Z,82752.00
2019-05-29T06:58:39.933Z,80576.00
2019-05-29T06:59:40.315Z,80608.00
2019-05-29T07:00:39.379Z,80928.00
2019-05-29T07:01:39.459Z,82048.00
2019-05-29T07:02:38.899Z,82112.00
2019-05-29T07:03:39.699Z,82944.00
2019-05-29T07:04:38.736Z,82240.00
2019-05-29T07:05:39.828Z,82848.00
2019-05-29T07:06:38.715Z,83712.00
2019-05-29T07:07:40.171Z,81120.00
2019-05-29T07:08:44.179Z,82080.00
2019-05-29T07:09:40.945Z,81664.00
2019-05-29T07:10:38.716Z,83296.00
2019-05-29T07:11:39.031Z,82048.00
2019-05-29T07:12:38.662Z,80448.00
2019-05-29T07:13:41.832Z,80896.00
2019-05-29T07:14:40.257Z,82528.00
2019-05-29T07:15:38.727Z,82400.00
2019-05-29T07:16:49.109Z,84384.00
2019-05-29T07:17:40.430Z,85760.00
2019-05-29T07:18:38.704Z,83616.00
2019-05-29T07:19:49.067Z,84480.00
2019-05-29T07:20:40.610Z,82528.00
2019-05-29T07:21:38.869Z,81792.00
2019-05-29T07:22:38.966Z,81536.00
2019-05-29T07:23:38.846Z,83520.00
2019-05-29T07:24:38.800Z,84960.00
2019-05-29T07:25:39.252Z,83872.00
2019-05-29T07:26:38.911Z,84256.00
2019-05-29T07:27:38.813Z,81760.00
2019-05-29T07:28:55.487Z,81632.00
2019-05-29T07:29:39.491Z,81536.00
2019-05-29T07:30:39.216Z,81664.00
2019-05-29T07:31:38.856Z,81664.00
2019-05-29T07:32:40.462Z,81024.00
2019-05-29T07:33:39.009Z,83552.00
2019-05-29T07:34:53.690Z,85568.00
2019-05-29T07:35:39.744Z,82624.00
2019-05-29T07:36:39.787Z,86080.00
2019-05-29T07:37:39.722Z,85632.00
2019-05-29T07:38:39.566Z,82208.00
2019-05-29T07:39:39.381Z,82432.00
2019-05-29T07:40:39.090Z,83968.00
2019-05-29T07:41:39.476Z,81280.00
2019-05-29T07:42:41.646Z,80352.00
2019-05-29T07:43:39.695Z,83552.00
2019-05-29T07:44:38.390Z,85056.00
2019-05-29T07:45:38.325Z,84448.00
2019-05-29T07:46:38.309Z,83552.00
2019-05-29T07:47:38.456Z,81920.00
2019-05-29T07:48:38.480Z,83616.00
2019-05-29T07:49:41.031Z,83840.00
2019-05-29T07:50:40.074Z,81600.00
2019-05-29T07:51:38.270Z,79360.00
2019-05-29T07:52:38.591Z,81216.00
2019-05-29T07:53:38.277Z,82080.00
2019-05-29T07:54:39.844Z,83616.00
2019-05-29T07:55:38.466Z,85888.00
2019-05-29T07:56:38.357Z,87040.00
2019-05-29T07:57:38.856Z,87520.00
2019-05-29T07:58:38.693Z,87360.00
2019-05-29T07:59:38.566Z,85408.00
2019-05-29T08:01:01.095Z,86080.00
2019-05-29T08:01:39.162Z,84064.00
2019-05-29T08:02:39.329Z,82080.00
2019-05-29T08:03:39.262Z,82720.00
2019-05-29T08:04:38.877Z,84768.00
2019-05-29T08:05:39.170Z,83840.00
2019-05-29T08:06:39.480Z,84672.00
2019-05-29T08:07:39.377Z,84288.00
2019-05-29T08:08:39.129Z,85216.00
2019-05-29T08:09:39.236Z,84032.00
2019-05-29T08:10:39.822Z,83136.00
2019-05-29T08:11:39.388Z,81568.00
2019-05-29T08:12:42.352Z,82048.00
2019-05-29T08:13:39.465Z,81472.00
2019-05-29T08:14:38.025Z,81216.00
2019-05-29T08:15:52.064Z,82880.00
2019-05-29T08:16:39.750Z,83200.00
2019-05-29T08:17:37.998Z,85792.00
2019-05-29T08:18:38.010Z,86176.00
2019-05-29T08:19:52.999Z,84128.00
2019-05-29T08:20:39.786Z,82720.00
2019-05-29T08:21:37.975Z,83584.00
2019-05-29T08:22:37.986Z,82112.00
2019-05-29T08:23:38.005Z,82816.00
2019-05-29T08:24:37.933Z,85888.00
2019-05-29T08:25:37.922Z,85344.00
2019-05-29T08:26:37.921Z,81696.00
2019-05-29T08:27:37.913Z,81600.00
2019-05-29T08:28:37.892Z,81312.00
2019-05-29T08:29:37.883Z,80640.00
2019-05-29T08:30:37.883Z,84416.00
2019-05-29T08:31:37.863Z,83232.00
2019-05-29T08:32:37.864Z,84064.00
2019-05-29T08:33:37.841Z,84096.00
2019-05-29T08:34:37.838Z,83296.00
2019-05-29T08:35:37.814Z,82624.00
2019-05-29T08:36:37.899Z,84608.00
2019-05-29T08:37:37.810Z,90816.00
2019-05-29T08:38:37.812Z,93824.00
2019-05-29T08:39:37.881Z,96544.00
2019-05-29T08:40:37.811Z,100704.00
2019-05-29T08:41:37.772Z,94816.00
2019-05-29T08:42:37.760Z,98112.00
2019-05-29T08:43:37.773Z,95040.00
2019-05-29T08:44:37.729Z,90272.00
2019-05-29T08:45:37.760Z,92832.00
2019-05-29T08:46:37.714Z,89600.00
2019-05-29T08:47:37.730Z,87392.00
2019-05-29T08:48:37.721Z,91168.00
2019-05-29T08:49:37.676Z,87616.00
2019-05-29T08:50:37.669Z,84192.00
2019-05-29T08:51:37.663Z,83616.00
2019-05-29T08:52:37.653Z,83232.00
2019-05-29T08:53:37.648Z,83776.00
2019-05-29T08:54:37.628Z,86304.00
2019-05-29T08:55:37.618Z,87008.00
2019-05-29T08:56:37.630Z,82848.00
2019-05-29T08:57:37.662Z,83456.00
2019-05-29T08:58:38.231Z,84224.00
2019-05-29T08:59:37.610Z,83776.00
2019-05-29T09:00:37.567Z,79776.00
2019-05-29T09:01:37.566Z,82304.00
2019-05-29T09:02:37.537Z,82656.00
2019-05-29T09:03:37.528Z,80736.00
2019-05-29T09:04:37.584Z,77984.00
2019-05-29T09:05:37.526Z,77184.00
2019-05-29T09:06:38.257Z,77056.00
2019-05-29T09:07:37.520Z,75488.00
2019-05-29T09:08:37.495Z,76960.00
2019-05-29T09:09:37.489Z,77408.00
2019-05-29T09:10:37.537Z,76928.00
2019-05-29T09:11:37.457Z,74848.00
2019-05-29T09:12:37.446Z,73344.00
2019-05-29T09:13:37.438Z,70048.00
2019-05-29T09:14:37.439Z,67584.00
2019-05-29T09:15:37.493Z,68128.00
2019-05-29T09:16:37.405Z,67456.00
2019-05-29T09:17:37.394Z,68096.00
2019-05-29T09:18:37.394Z,71776.00
2019-05-29T09:19:37.382Z,70112.00
2019-05-29T09:21:01.198Z,72512.00
2019-05-29T09:21:38.355Z,72256.00
2019-05-29T09:22:37.354Z,63136.00
2019-05-29T09:23:37.334Z,35360.00
2019-05-29T09:24:37.346Z,8784.00
2019-05-29T09:25:37.324Z,7608.00
2019-05-29T09:26:37.294Z,7176.00
2019-05-29T09:27:37.311Z,7004.00
2019-05-29T09:28:37.816Z,6860.00
2019-05-29T09:29:37.294Z,6760.00
2019-05-29T09:30:37.264Z,6616.00
2019-05-29T09:31:37.254Z,6548.00
2019-05-29T09:32:49.416Z,6488.00
2019-05-29T09:33:38.295Z,6468.00
2019-05-29T09:34:37.284Z,6376.00
2019-05-29T09:35:37.215Z,6356.00
2019-05-29T09:36:37.205Z,6260.00
2019-05-29T09:37:37.284Z,6072.00
2019-05-29T09:38:37.817Z,5884.00
2019-05-29T09:39:37.171Z,5792.00
2019-05-29T09:40:37.242Z,5788.00
2019-05-29T09:41:37.145Z,5732.00
2019-05-29T09:42:37.136Z,5724.00
2019-05-29T09:43:37.148Z,5704.00
2019-05-29T09:44:39.228Z,5704.00
2019-05-29T09:45:37.130Z,5672.00
2019-05-29T09:46:37.094Z,5548.00
2019-05-29T09:47:37.089Z,5400.00
2019-05-29T09:48:49.267Z,5304.00
2019-05-29T09:49:38.068Z,5284.00
2019-05-29T09:50:49.473Z,5300.00
2019-05-29T09:51:38.058Z,5264.00
2019-05-29T09:52:37.096Z,5224.00
2019-05-29T09:53:37.017Z,5184.00
2019-05-29T09:54:37.627Z,5168.00
2019-05-29T09:55:37.007Z,5120.00
2019-05-29T09:56:36.994Z,5044.00
2019-05-29T09:57:36.982Z,5004.00
2019-05-29T09:58:36.966Z,4980.00
2019-05-29T09:59:36.957Z,4956.00
2019-05-29T10:00:36.948Z,4920.00
2019-05-29T10:01:36.946Z,4900.00
2019-05-29T10:02:36.935Z,4848.00
2019-05-29T10:03:36.916Z,4800.00
2019-05-29T10:04:36.905Z,4728.00
2019-05-29T10:05:36.885Z,4584.00
2019-05-29T10:06:36.966Z,4392.00
2019-05-29T10:07:36.865Z,4188.00
2019-05-29T10:08:36.853Z,4048.00
2019-05-29T10:09:36.843Z,3936.00
2019-05-29T10:10:36.833Z,3836.00
2019-05-29T10:11:36.837Z,3776.00
2019-05-29T10:12:36.822Z,3716.00
2019-05-29T10:13:36.802Z,3692.00
2019-05-29T10:14:36.790Z,3652.00
2019-05-29T10:15:36.831Z,3696.00
2019-05-29T10:16:36.779Z,3724.00
2019-05-29T10:17:36.759Z,3708.00
2019-05-29T10:18:36.778Z,3688.00
2019-05-29T10:19:36.739Z,3692.00
2019-05-29T10:20:36.740Z,3636.00
2019-05-29T10:21:40.768Z,3600.00
2019-05-29T10:22:36.778Z,3532.00
2019-05-29T10:23:36.749Z,3468.00
2019-05-29T10:24:37.534Z,3456.00
2019-05-29T10:26:45.632Z,3484.00
2019-05-29T10:27:45.617Z,3488.00
2019-05-29T10:29:02.280Z,3492.00
2019-05-29T10:29:48.841Z,3460.00
2019-05-29T10:30:46.200Z,3420.00
2019-05-29T10:31:47.242Z,3428.00
2019-05-29T10:32:46.229Z,3416.00
2019-05-29T10:33:46.170Z,3416.00
2019-05-29T10:34:46.296Z,3372.00
2019-05-29T10:35:49.046Z,3324.00
2019-05-29T10:36:49.499Z,3304.00
2019-05-29T10:37:46.624Z,3276.00
2019-05-29T10:38:46.501Z,3284.00
2019-05-29T10:39:46.709Z,3260.00
2019-05-29T10:40:52.356Z,3268.00
2019-05-29T10:41:46.706Z,3268.00
2019-05-29T10:42:45.428Z,3224.00
2019-05-29T10:43:45.421Z,3192.00
2019-05-29T10:44:45.451Z,3184.00
2019-05-29T10:45:45.813Z,3168.00
2019-05-29T10:46:47.909Z,3164.00
2019-05-29T10:47:45.528Z,3152.00
2019-05-29T10:48:48.651Z,3152.00
2019-05-29T10:49:47.546Z,3132.00
2019-05-29T10:50:48.833Z,3172.00
2019-05-29T10:52:00.289Z,3164.00
2019-05-29T10:52:46.324Z,3176.00
2019-05-29T10:53:47.171Z,3156.00
2019-05-29T10:54:46.130Z,3144.00
2019-05-29T10:55:46.370Z,3120.00
2019-05-29T10:56:46.683Z,3104.00
2019-05-29T10:57:46.566Z,3104.00
2019-05-29T10:58:49.558Z,3112.00
2019-05-29T10:59:46.643Z,3116.00
2019-05-29T11:00:45.446Z,3144.00
2019-05-29T11:01:45.243Z,3160.00
2019-05-29T11:02:46.183Z,3140.00
2019-05-29T11:03:45.558Z,3128.00
2019-05-29T11:04:50.368Z,3124.00
2019-05-29T11:05:47.386Z,3140.00
2019-05-29T11:06:46.125Z,3116.00
2019-05-29T11:07:45.731Z,3104.00
2019-05-29T11:08:45.900Z,3084.00
2019-05-29T11:09:46.808Z,3104.00
2019-05-29T11:10:46.002Z,3076.00
2019-05-29T11:11:46.209Z,3060.00
2019-05-29T11:12:46.374Z,3052.00
2019-05-29T11:13:46.587Z,3036.00
2019-05-29T11:14:46.408Z,3072.00
2019-05-29T11:15:45.073Z,3072.00
2019-05-29T11:16:45.057Z,3040.00
2019-05-29T11:17:45.066Z,3012.00
2019-05-29T11:18:45.056Z,2944.00
2019-05-29T11:19:45.049Z,2912.00
2019-05-29T11:20:45.048Z,2872.00
2019-05-29T11:21:45.023Z,2816.00
2019-05-29T11:22:44.999Z,2816.00
2019-05-29T11:23:45.024Z,2828.00
2019-05-29T11:24:44.966Z,2824.00
2019-05-29T11:25:44.974Z,2844.00
2019-05-29T11:26:44.954Z,2804.00
2019-05-29T11:27:44.952Z,2804.00
2019-05-29T11:28:44.935Z,2840.00
2019-05-29T11:29:44.927Z,2856.00
2019-05-29T11:30:44.915Z,2856.00
2019-05-29T11:31:44.914Z,2804.00
2019-05-29T11:32:47.535Z,2764.00
2019-05-29T11:33:44.878Z,2780.00
2019-05-29T11:34:44.881Z,2788.00
2019-05-29T11:35:57.791Z,2784.00
2019-05-29T11:36:45.905Z,2756.00
2019-05-29T11:37:44.842Z,2712.00
2019-05-29T11:38:44.839Z,2696.00
2019-05-29T11:39:44.820Z,2704.00
2019-05-29T11:40:44.955Z,2708.00
2019-05-29T11:41:44.794Z,2732.00
2019-05-29T11:42:44.799Z,2772.00
2019-05-29T11:43:44.789Z,2844.00
2019-05-29T11:44:44.778Z,2844.00
2019-05-29T11:45:44.770Z,2880.00
2019-05-29T11:46:44.767Z,3000.00
2019-05-29T11:47:44.730Z,3372.00
2019-05-29T11:48:44.706Z,3336.00
2019-05-29T11:49:44.726Z,3156.00
2019-05-29T11:50:44.699Z,2896.00
2019-05-29T11:51:44.715Z,2724.00
2019-05-29T11:52:44.709Z,2680.00
2019-05-29T11:53:44.676Z,2688.00
2019-05-29T11:54:44.647Z,2708.00
2019-05-29T11:55:44.638Z,2748.00
2019-05-29T11:56:44.640Z,2764.00
2019-05-29T11:57:45.423Z,2760.00
2019-05-29T11:58:44.607Z,2816.00
2019-05-29T11:59:44.596Z,2824.00
2019-05-29T12:00:44.583Z,2848.00
2019-05-29T12:01:50.206Z,2844.00
2019-05-29T12:02:45.576Z,2816.00
2019-05-29T12:04:07.958Z,2808.00
2019-05-29T12:04:45.542Z,2744.00
2019-05-29T12:05:44.533Z,2700.00
2019-05-29T12:06:44.527Z,2656.00
2019-05-29T12:07:44.513Z,2644.00
2019-05-29T12:08:44.512Z,2660.00
2019-05-29T12:09:44.492Z,2680.00
2019-05-29T12:10:44.492Z,2716.00
2019-05-29T12:11:44.469Z,2736.00
2019-05-29T12:12:44.458Z,2784.00
2019-05-29T12:13:44.514Z,2856.00
2019-05-29T12:14:58.983Z,2892.00
2019-05-29T12:15:45.438Z,2912.00
2019-05-29T12:16:44.429Z,3032.00
2019-05-29T12:17:44.422Z,3440.00
2019-05-29T12:18:44.398Z,3812.00
2019-05-29T12:19:44.378Z,4296.00